createdAt,value
2017-05-30T00:00:57.631Z,60.10
2017-05-30T00:03:25.959Z,61.00
2017-05-30T00:05:54.264Z,60.90
2017-05-30T00:08:22.593Z,61.20
2017-05-30T00:10:50.892Z,61.60
2017-05-30T00:13:19.190Z,61.30
2017-05-30T00:15:47.516Z,61.70
2017-05-30T00:18:15.806Z,62.10
2017-05-30T00:20:44.133Z,61.60
2017-05-30T00:23:12.485Z,61.90
2017-05-30T00:25:40.777Z,61.70
2017-05-30T00:28:09.101Z,62.50
2017-05-30T00:30:37.408Z,62.00
2017-05-30T00:33:05.736Z,61.80
2017-05-30T00:35:34.055Z,62.30
2017-05-30T00:38:02.359Z,63.20
2017-05-30T00:40:30.673Z,63.00
2017-05-30T00:42:58.998Z,63.60
2017-05-30T00:45:27.330Z,64.10
2017-05-30T00:47:55.626Z,64.60
2017-05-30T00:50:23.938Z,64.60
2017-05-30T00:52:52.347Z,64.40
2017-05-30T00:55:20.652Z,64.80
2017-05-30T00:57:48.966Z,64.70
2017-05-30T01:00:17.270Z,65.30
2017-05-30T01:02:45.575Z,64.90
2017-05-30T01:05:13.897Z,65.00
2017-05-30T01:07:42.226Z,65.70
2017-05-30T01:10:10.562Z,65.70
2017-05-30T01:12:38.878Z,65.50
2017-05-30T01:15:07.181Z,65.70
2017-05-30T01:17:35.497Z,65.80
2017-05-30T01:20:03.800Z,65.80
2017-05-30T01:22:32.130Z,65.80
2017-05-30T01:25:00.421Z,65.70
2017-05-30T01:27:28.718Z,65.70
2017-05-30T01:29:57.031Z,65.70
2017-05-30T01:32:25.335Z,65.70
2017-05-30T01:34:53.656Z,65.70
2017-05-30T01:37:21.958Z,65.70
2017-05-30T01:39:50.257Z,66.40
2017-05-30T01:42:18.578Z,65.30
2017-05-30T01:44:46.880Z,64.50
2017-05-30T01:47:15.202Z,64.60
2017-05-30T01:49:43.643Z,65.30
2017-05-30T01:52:11.972Z,65.70
2017-05-30T01:54:40.287Z,65.40
2017-05-30T01:57:08.582Z,65.50
2017-05-30T01:59:36.905Z,65.30
2017-05-30T02:02:05.207Z,65.30
2017-05-30T02:04:33.527Z,66.30
2017-05-30T02:07:01.830Z,65.90
2017-05-30T02:09:30.142Z,66.50
2017-05-30T02:11:58.454Z,67.50
2017-05-30T02:14:26.762Z,67.70
2017-05-30T02:16:55.099Z,68.10
2017-05-30T02:19:23.394Z,67.40
2017-05-30T02:21:51.862Z,67.10
2017-05-30T02:24:20.186Z,67.30
2017-05-30T02:26:48.486Z,67.40
2017-05-30T02:29:16.822Z,67.90
2017-05-30T02:31:45.122Z,69.20
2017-05-30T02:34:13.422Z,68.90
2017-05-30T02:36:41.746Z,69.70
2017-05-30T02:39:10.046Z,70.50
2017-05-30T02:41:38.387Z,70.50
2017-05-30T02:44:06.681Z,70.80
2017-05-30T02:46:34.978Z,70.50
2017-05-30T02:49:03.301Z,71.00
2017-05-30T02:51:31.606Z,71.30
2017-05-30T02:53:59.933Z,71.60
2017-05-30T02:56:28.239Z,72.90
2017-05-30T02:58:56.538Z,72.50
2017-05-30T03:01:24.854Z,72.50
2017-05-30T03:03:53.146Z,72.20
2017-05-30T03:06:21.495Z,73.60
2017-05-30T03:08:49.791Z,74.10
2017-05-30T03:11:18.086Z,74.50
2017-05-30T03:13:46.409Z,74.50
2017-05-30T03:16:14.711Z,75.70
2017-05-30T03:18:43.047Z,74.80
2017-05-30T03:21:11.350Z,75.30
2017-05-30T03:23:39.653Z,75.70
2017-05-30T03:26:07.966Z,75.90
2017-05-30T03:28:36.258Z,74.80
2017-05-30T03:31:04.578Z,75.90
2017-05-30T03:33:32.878Z,75.10
2017-05-30T03:36:01.171Z,76.00
2017-05-30T03:38:29.489Z,75.70
2017-05-30T03:40:57.794Z,74.40
2017-05-30T03:43:26.130Z,74.80
2017-05-30T03:45:54.429Z,74.50
2017-05-30T03:48:22.731Z,73.80
2017-05-30T03:50:51.051Z,74.00
2017-05-30T03:53:19.342Z,72.80
2017-05-30T03:55:47.671Z,72.10
2017-05-30T03:58:15.962Z,71.60
2017-05-30T04:00:44.263Z,70.80
2017-05-30T04:03:12.578Z,71.50
2017-05-30T04:05:40.883Z,70.50
2017-05-30T04:08:09.196Z,69.50
2017-05-30T04:10:37.491Z,68.30
2017-05-30T04:13:05.787Z,67.00
2017-05-30T04:15:34.109Z,67.10
2017-05-30T04:18:02.417Z,65.20
2017-05-30T04:20:30.741Z,63.40
2017-05-30T04:22:58.284Z,63.40
2017-05-30T04:25:26.583Z,58.40
2017-05-30T04:27:54.906Z,53.40
2017-05-30T04:30:23.226Z,44.10
2017-05-30T04:32:51.534Z,39.00
2017-05-30T04:35:19.832Z,34.90
2017-05-30T04:37:48.163Z,30.70
2017-05-30T04:40:16.466Z,28.30
2017-05-30T04:42:44.754Z,26.30
2017-05-30T04:45:13.070Z,25.80
2017-05-30T04:47:40.609Z,25.70
2017-05-30T04:50:08.942Z,34.60
2017-05-30T04:52:37.238Z,40.00
2017-05-30T04:55:05.549Z,43.50
2017-05-30T04:57:33.872Z,47.10
2017-05-30T05:00:02.210Z,46.10
2017-05-30T05:02:30.510Z,36.80
2017-05-30T05:04:58.828Z,31.30
2017-05-30T05:07:27.129Z,27.40
2017-05-30T05:09:55.448Z,25.40
2017-05-30T05:12:23.746Z,24.40
2017-05-30T05:14:52.047Z,23.00
2017-05-30T05:17:20.365Z,21.90
2017-05-30T05:19:48.654Z,20.60
2017-05-30T05:22:16.971Z,19.80
2017-05-30T05:24:45.699Z,19.10
2017-05-30T05:27:13.994Z,19.10
2017-05-30T05:29:42.310Z,19.00
2017-05-30T05:32:10.598Z,18.10
2017-05-30T05:34:38.913Z,17.80
2017-05-30T05:37:07.206Z,17.30
2017-05-30T05:39:35.494Z,16.50
2017-05-30T05:42:03.806Z,15.30
2017-05-30T05:44:32.127Z,14.70
2017-05-30T05:47:00.485Z,15.90
2017-05-30T05:49:28.779Z,15.90
2017-05-30T05:51:57.062Z,16.40
2017-05-30T05:54:25.380Z,18.40
2017-05-30T05:56:53.673Z,18.70
2017-05-30T05:59:22.011Z,17.60
2017-05-30T06:01:50.310Z,16.70
2017-05-30T06:04:18.603Z,17.30
2017-05-30T06:06:46.911Z,16.00
2017-05-30T06:09:15.203Z,15.40
2017-05-30T06:11:43.539Z,14.50
2017-05-30T06:14:11.846Z,14.30
2017-05-30T06:16:40.167Z,14.00
2017-05-30T06:19:08.483Z,13.80
2017-05-30T06:21:36.769Z,13.30
2017-05-30T06:24:05.079Z,12.80
2017-05-30T06:26:33.370Z,12.90
2017-05-30T06:29:01.659Z,13.00
2017-05-30T06:31:30.021Z,12.60
2017-05-30T06:33:58.307Z,12.60
2017-05-30T06:36:26.625Z,13.60
2017-05-30T06:38:54.917Z,14.00
2017-05-30T06:41:23.218Z,15.00
2017-05-30T06:43:51.540Z,16.80
2017-05-30T06:46:19.882Z,18.80
2017-05-30T06:48:48.195Z,19.90
2017-05-30T06:51:16.483Z,21.80
2017-05-30T06:53:44.803Z,23.10
2017-05-30T06:56:13.094Z,24.50
2017-05-30T06:58:41.406Z,26.30
2017-05-30T07:01:09.723Z,27.30
2017-05-30T07:03:38.018Z,27.70
2017-05-30T07:06:06.311Z,28.10
2017-05-30T07:08:34.627Z,28.80
2017-05-30T07:11:02.953Z,29.70
2017-05-30T07:13:31.285Z,30.00
2017-05-30T07:15:59.666Z,30.30
2017-05-30T07:18:27.964Z,31.60
2017-05-30T07:20:56.295Z,29.00
2017-05-30T07:23:24.621Z,29.00
2017-05-30T07:25:52.966Z,28.90
2017-05-30T07:28:21.272Z,29.80
2017-05-30T07:30:49.560Z,30.20
2017-05-30T07:33:17.965Z,29.60
2017-05-30T07:35:46.296Z,29.60
2017-05-30T07:38:14.633Z,29.60
2017-05-30T07:40:42.950Z,30.20
2017-05-30T07:43:11.245Z,29.60
2017-05-30T07:45:39.550Z,29.50
2017-05-30T07:48:07.841Z,29.40
2017-05-30T07:50:36.175Z,29.70
2017-05-30T07:53:04.470Z,30.40
2017-05-30T07:55:32.797Z,30.90
2017-05-30T07:58:01.127Z,30.50
2017-05-30T08:00:29.409Z,31.30
2017-05-30T08:02:57.720Z,30.00
2017-05-30T08:05:26.023Z,30.70
2017-05-30T08:07:54.337Z,29.50
2017-05-30T08:10:22.622Z,30.30
2017-05-30T08:12:50.950Z,29.30
2017-05-30T08:15:19.334Z,29.00
2017-05-30T08:17:47.777Z,27.70
2017-05-30T08:20:16.095Z,27.90
2017-05-30T08:22:44.398Z,26.40
2017-05-30T08:25:12.716Z,26.40
2017-05-30T08:27:41.022Z,26.60
2017-05-30T08:30:09.356Z,27.90
2017-05-30T08:32:37.657Z,28.50
2017-05-30T08:35:05.970Z,29.20
2017-05-30T08:37:34.263Z,28.40
2017-05-30T08:40:02.602Z,28.40
2017-05-30T08:42:30.977Z,28.70
2017-05-30T08:44:59.294Z,28.70
2017-05-30T08:47:27.718Z,28.60
2017-05-30T08:49:56.007Z,27.00
2017-05-30T08:52:24.307Z,26.30
2017-05-30T08:54:52.633Z,27.00
2017-05-30T08:57:21.051Z,27.70
2017-05-30T08:59:49.354Z,26.70
2017-05-30T09:02:17.715Z,26.20
2017-05-30T09:04:46.487Z,25.10
2017-05-30T09:07:14.787Z,25.00
2017-05-30T09:09:43.104Z,24.60
2017-05-30T09:12:11.407Z,24.90
2017-05-30T09:14:39.723Z,25.00
2017-05-30T09:17:08.017Z,26.30
2017-05-30T09:19:36.316Z,26.10
2017-05-30T09:22:04.632Z,25.40
2017-05-30T09:24:32.922Z,26.30
2017-05-30T09:27:01.247Z,26.10
2017-05-30T09:29:29.559Z,25.60
2017-05-30T09:31:57.852Z,27.30
2017-05-30T09:34:26.169Z,26.40
2017-05-30T09:36:54.478Z,25.90
2017-05-30T09:39:22.791Z,25.80
2017-05-30T09:41:51.085Z,25.00
2017-05-30T09:44:19.382Z,23.80
2017-05-30T09:46:47.722Z,23.60
2017-05-30T09:49:16.037Z,24.00
2017-05-30T09:51:44.362Z,23.60
2017-05-30T09:54:12.654Z,23.90
2017-05-30T09:56:40.948Z,23.10
2017-05-30T09:59:09.264Z,22.90
2017-05-30T10:01:37.563Z,23.40
2017-05-30T10:04:05.885Z,22.00
2017-05-30T10:06:34.181Z,22.00
2017-05-30T10:09:02.507Z,22.00
2017-05-30T10:11:30.848Z,21.90
2017-05-30T10:13:59.154Z,21.50
2017-05-30T10:16:27.487Z,21.50
2017-05-30T10:18:55.774Z,22.80
2017-05-30T10:21:24.079Z,22.10
2017-05-30T10:23:52.397Z,22.40
2017-05-30T10:26:20.727Z,22.00
2017-05-30T10:28:49.051Z,23.00
2017-05-30T10:31:17.351Z,20.70
2017-05-30T10:33:45.657Z,21.30
2017-05-30T10:36:13.971Z,19.80
2017-05-30T10:38:42.270Z,20.60
2017-05-30T10:41:10.585Z,21.00
2017-05-30T10:43:38.878Z,21.40
2017-05-30T10:46:07.237Z,21.50
2017-05-30T10:48:35.545Z,20.80
2017-05-30T10:51:03.848Z,20.20
2017-05-30T10:53:32.165Z,21.50
2017-05-30T10:56:00.468Z,20.80
2017-05-30T10:58:28.758Z,23.30
2017-05-30T11:00:57.075Z,23.20
2017-05-30T11:03:25.374Z,23.70
2017-05-30T11:05:53.709Z,23.40
2017-05-30T11:08:22.003Z,23.30
2017-05-30T11:10:50.294Z,21.40
2017-05-30T11:13:18.610Z,20.30
2017-05-30T11:15:46.903Z,19.30
2017-05-30T11:18:15.262Z,19.70
2017-05-30T11:20:43.557Z,19.70
2017-05-30T11:23:11.856Z,18.80
2017-05-30T11:25:40.166Z,19.30
2017-05-30T11:28:08.474Z,19.70
2017-05-30T11:30:36.790Z,19.30
2017-05-30T11:33:05.081Z,18.40
2017-05-30T11:35:33.373Z,18.40
2017-05-30T11:38:01.687Z,18.40
2017-05-30T11:40:29.984Z,19.50
2017-05-30T11:42:58.298Z,19.10
2017-05-30T11:45:26.618Z,19.50
2017-05-30T11:47:54.918Z,20.80
2017-05-30T11:50:23.222Z,20.90
2017-05-30T11:52:51.509Z,20.90
2017-05-30T11:55:19.842Z,21.00
2017-05-30T11:57:48.142Z,21.40
2017-05-30T12:00:16.466Z,20.80
2017-05-30T12:02:44.782Z,21.50
2017-05-30T12:05:13.079Z,21.90
2017-05-30T12:07:41.394Z,22.60
2017-05-30T12:10:09.681Z,22.60
2017-05-30T12:12:37.978Z,21.80
2017-05-30T12:15:06.287Z,21.80
2017-05-30T12:17:34.582Z,21.60
2017-05-30T12:20:02.878Z,22.30
2017-05-30T12:22:31.200Z,20.70
2017-05-30T12:24:59.498Z,19.00
2017-05-30T12:27:27.839Z,18.50
2017-05-30T12:29:56.130Z,19.00
2017-05-30T12:32:24.437Z,19.10
2017-05-30T12:34:52.765Z,18.50
2017-05-30T12:37:21.055Z,18.70
2017-05-30T12:39:49.393Z,18.10
2017-05-30T12:42:17.691Z,17.90
2017-05-30T12:44:45.996Z,17.80
2017-05-30T12:47:14.302Z,18.50
2017-05-30T12:49:42.590Z,19.70
2017-05-30T12:52:10.925Z,19.30
2017-05-30T12:54:39.220Z,18.50
2017-05-30T12:57:07.518Z,19.60
2017-05-30T12:59:35.836Z,20.30
2017-05-30T13:02:04.127Z,18.90
2017-05-30T13:04:32.442Z,19.20
2017-05-30T13:07:00.747Z,18.00
2017-05-30T13:09:29.043Z,18.40
2017-05-30T13:11:57.467Z,19.20
2017-05-30T13:14:25.755Z,19.70
2017-05-30T13:16:54.069Z,18.80
2017-05-30T13:19:22.354Z,18.80
2017-05-30T13:21:50.650Z,19.60
2017-05-30T13:24:18.959Z,20.30
2017-05-30T13:26:47.267Z,20.30
2017-05-30T13:29:15.597Z,20.10
2017-05-30T13:31:43.881Z,20.40
2017-05-30T13:34:12.179Z,20.20
2017-05-30T13:36:40.496Z,19.40
2017-05-30T13:39:08.790Z,19.00
2017-05-30T13:41:37.106Z,19.30
2017-05-30T13:44:05.445Z,19.60
2017-05-30T13:46:33.746Z,17.90
2017-05-30T13:49:02.162Z,18.10
2017-05-30T13:51:30.458Z,18.00
2017-05-30T13:53:58.771Z,18.10
2017-05-30T13:56:27.059Z,18.30
2017-05-30T13:58:55.346Z,18.70
2017-05-30T14:01:23.662Z,17.90
2017-05-30T14:03:52.038Z,19.80
2017-05-30T14:06:20.355Z,21.10
2017-05-30T14:08:48.641Z,19.60
2017-05-30T14:11:16.926Z,19.90
2017-05-30T14:13:45.255Z,20.40
2017-05-30T14:16:13.544Z,21.00
2017-05-30T14:18:41.871Z,19.80
2017-05-30T14:21:10.162Z,20.20
2017-05-30T14:23:38.457Z,19.20
2017-05-30T14:26:06.779Z,19.10
2017-05-30T14:28:35.071Z,19.10
2017-05-30T14:31:03.382Z,17.60
2017-05-30T14:33:31.693Z,17.90
2017-05-30T14:35:59.987Z,17.70
2017-05-30T14:38:28.321Z,18.10
2017-05-30T14:40:56.630Z,18.90
2017-05-30T14:43:24.946Z,17.80
2017-05-30T14:45:53.242Z,18.40
2017-05-30T14:48:21.538Z,18.30
2017-05-30T14:50:49.853Z,18.20
2017-05-30T14:53:18.168Z,18.50
2017-05-30T14:55:46.482Z,18.10
2017-05-30T14:58:14.793Z,20.40
2017-05-30T15:00:43.089Z,18.30
2017-05-30T15:03:11.419Z,18.70
2017-05-30T15:05:39.713Z,18.60
2017-05-30T15:08:08.017Z,19.00
2017-05-30T15:10:36.437Z,18.30
2017-05-30T15:13:04.731Z,18.30
2017-05-30T15:15:33.051Z,18.20
2017-05-30T15:18:01.341Z,19.50
2017-05-30T15:20:29.635Z,19.90
2017-05-30T15:22:57.945Z,19.80
2017-05-30T15:25:26.233Z,19.30
2017-05-30T15:27:54.556Z,19.10
2017-05-30T15:30:22.847Z,19.60
2017-05-30T15:32:51.143Z,19.20
2017-05-30T15:35:19.813Z,19.90
2017-05-30T15:37:48.102Z,20.30
2017-05-30T15:40:16.423Z,20.30
2017-05-30T15:42:44.743Z,21.00
2017-05-30T15:45:13.044Z,21.40
2017-05-30T15:47:41.363Z,21.10
2017-05-30T15:50:09.661Z,22.10
2017-05-30T15:52:37.989Z,22.00
2017-05-30T15:55:06.317Z,21.80
2017-05-30T15:57:34.637Z,21.50
2017-05-30T16:00:02.938Z,22.50
2017-05-30T16:02:31.253Z,21.90
2017-05-30T16:04:59.557Z,22.40
2017-05-30T16:07:27.846Z,22.50
2017-05-30T16:09:56.166Z,23.10
2017-05-30T16:12:24.463Z,23.00
2017-05-30T16:14:52.822Z,24.30
2017-05-30T16:17:21.124Z,23.80
2017-05-30T16:19:49.418Z,23.20
2017-05-30T16:22:17.739Z,23.60
2017-05-30T16:24:46.470Z,23.90
2017-05-30T16:27:14.813Z,23.30
2017-05-30T16:29:43.110Z,22.90
2017-05-30T16:32:11.403Z,23.30
2017-05-30T16:34:39.717Z,23.00
2017-05-30T16:37:08.011Z,23.20
2017-05-30T16:39:36.347Z,23.90
2017-05-30T16:42:04.666Z,23.80
2017-05-30T16:44:32.962Z,23.50
2017-05-30T16:47:01.279Z,23.80
2017-05-30T16:49:29.578Z,24.80
2017-05-30T16:51:57.890Z,24.20
2017-05-30T16:54:26.615Z,24.50
2017-05-30T16:56:54.913Z,24.60
2017-05-30T16:59:23.217Z,24.70
2017-05-30T17:01:51.509Z,25.50
2017-05-30T17:04:19.835Z,24.80
2017-05-30T17:06:48.130Z,24.70
2017-05-30T17:09:16.425Z,24.40
2017-05-30T17:11:44.733Z,24.90
2017-05-30T17:14:13.053Z,25.30
2017-05-30T17:16:41.371Z,25.40
2017-05-30T17:19:09.663Z,25.10
2017-05-30T17:21:37.958Z,25.40
2017-05-30T17:24:06.276Z,25.30
2017-05-30T17:26:34.572Z,25.60
2017-05-30T17:29:02.878Z,26.20
2017-05-30T17:31:31.171Z,26.20
2017-05-30T17:33:59.469Z,26.20
2017-05-30T17:36:27.774Z,26.50
2017-05-30T17:38:56.066Z,26.80
2017-05-30T17:41:24.381Z,26.70
2017-05-30T17:43:52.686Z,26.40
2017-05-30T17:46:20.970Z,26.50
2017-05-30T17:48:49.276Z,26.60
2017-05-30T17:51:17.574Z,26.50
2017-05-30T17:53:45.887Z,26.50
2017-05-30T17:56:14.184Z,26.50
2017-05-30T17:58:42.529Z,26.40
2017-05-30T18:01:10.117Z,26.40
2017-05-30T18:03:38.390Z,27.30
2017-05-30T18:06:06.705Z,27.60
2017-05-30T18:08:35.003Z,28.00
2017-05-30T18:11:03.330Z,28.90
2017-05-30T18:13:30.866Z,28.90
2017-05-30T18:15:59.184Z,29.70
2017-05-30T18:18:27.485Z,29.60
2017-05-30T18:20:55.784Z,30.00
2017-05-30T18:23:24.104Z,30.30
2017-05-30T18:25:52.397Z,30.80
2017-05-30T18:28:20.710Z,31.20
2017-05-30T18:30:49.007Z,31.30
2017-05-30T18:33:17.294Z,31.70
2017-05-30T18:35:45.602Z,31.70
2017-05-30T18:38:13.979Z,32.00
2017-05-30T18:40:42.341Z,32.30
2017-05-30T18:43:10.628Z,32.30
2017-05-30T18:45:38.922Z,32.50
2017-05-30T18:48:07.243Z,33.70
2017-05-30T18:50:35.535Z,33.40
2017-05-30T18:53:03.850Z,33.60
2017-05-30T18:55:32.142Z,33.50
2017-05-30T18:58:00.437Z,34.10
2017-05-30T19:00:28.842Z,34.70
2017-05-30T19:02:57.131Z,35.10
2017-05-30T19:05:25.452Z,34.80
2017-05-30T19:07:53.880Z,34.30
2017-05-30T19:10:22.178Z,34.80
2017-05-30T19:12:50.496Z,35.20
2017-05-30T19:15:18.803Z,35.40
2017-05-30T19:17:47.134Z,36.10
2017-05-30T19:20:15.480Z,36.20
2017-05-30T19:22:43.779Z,36.70
2017-05-30T19:25:12.105Z,36.90
2017-05-30T19:27:40.410Z,37.30
2017-05-30T19:30:08.725Z,37.50
2017-05-30T19:32:37.047Z,37.50
2017-05-30T19:35:05.343Z,37.70
2017-05-30T19:37:33.644Z,38.20
2017-05-30T19:40:01.971Z,38.50
2017-05-30T19:42:30.262Z,39.00
2017-05-30T19:44:58.592Z,39.30
2017-05-30T19:47:26.890Z,39.50
2017-05-30T19:49:55.182Z,40.00
2017-05-30T19:52:23.493Z,40.30
2017-05-30T19:54:51.789Z,40.50
2017-05-30T19:57:20.106Z,40.90
2017-05-30T19:59:48.403Z,41.20
2017-05-30T20:02:16.698Z,41.00
2017-05-30T20:04:45.030Z,41.60
2017-05-30T20:07:13.323Z,41.60
2017-05-30T20:09:41.646Z,41.70
2017-05-30T20:12:09.947Z,42.40
2017-05-30T20:14:38.245Z,42.40
2017-05-30T20:17:06.554Z,43.00
2017-05-30T20:19:34.849Z,43.10
2017-05-30T20:22:03.178Z,43.20
2017-05-30T20:24:31.497Z,43.30
2017-05-30T20:26:59.787Z,43.70
2017-05-30T20:29:28.099Z,43.70
2017-05-30T20:31:56.396Z,43.90
2017-05-30T20:34:24.731Z,43.90
2017-05-30T20:36:53.055Z,44.00
2017-05-30T20:39:21.355Z,44.40
2017-05-30T20:41:49.713Z,45.10
2017-05-30T20:44:18.007Z,45.10
2017-05-30T20:46:46.330Z,45.10
2017-05-30T20:49:14.618Z,45.70
2017-05-30T20:51:42.907Z,46.00
2017-05-30T20:54:11.226Z,45.20
2017-05-30T20:56:39.526Z,45.40
2017-05-30T20:59:07.846Z,45.90
2017-05-30T21:01:36.160Z,44.90
2017-05-30T21:04:04.466Z,44.10
2017-05-30T21:06:32.782Z,44.10
2017-05-30T21:09:01.072Z,43.90
2017-05-30T21:11:29.411Z,43.80
2017-05-30T21:13:57.722Z,43.60
2017-05-30T21:16:26.064Z,44.00
2017-05-30T21:18:54.446Z,43.60
2017-05-30T21:21:22.783Z,44.00
2017-05-30T21:23:51.125Z,44.70
2017-05-30T21:26:19.468Z,44.50
2017-05-30T21:28:47.815Z,43.80
2017-05-30T21:31:16.166Z,44.00
2017-05-30T21:33:44.457Z,43.80
2017-05-30T21:36:12.779Z,43.60
2017-05-30T21:38:41.117Z,43.90
2017-05-30T21:41:09.472Z,44.10
2017-05-30T21:43:37.806Z,43.90
2017-05-30T21:46:06.133Z,43.80
2017-05-30T21:48:34.446Z,44.20
2017-05-30T21:51:02.745Z,44.40
2017-05-30T21:53:31.086Z,44.20
2017-05-30T21:55:59.470Z,44.70
2017-05-30T21:58:27.769Z,45.10
2017-05-30T22:00:56.078Z,45.20
2017-05-30T22:03:24.392Z,45.60
2017-05-30T22:05:52.756Z,45.60
2017-05-30T22:08:21.095Z,45.50
2017-05-30T22:10:49.394Z,45.50
2017-05-30T22:13:17.714Z,46.00
2017-05-30T22:15:46.027Z,46.20
2017-05-30T22:18:14.362Z,47.50
2017-05-30T22:20:42.712Z,46.40
2017-05-30T22:23:11.039Z,47.00
2017-05-30T22:25:39.370Z,47.20
2017-05-30T22:28:07.689Z,47.80
2017-05-30T22:33:13.510Z,47.90
2017-05-30T22:35:41.835Z,48.20
2017-05-30T22:38:10.147Z,48.10
2017-05-30T22:40:38.453Z,48.60
2017-05-30T22:43:06.778Z,48.70
2017-05-30T22:45:35.078Z,48.70
2017-05-30T22:48:03.403Z,49.10
2017-05-30T22:50:31.705Z,48.90
2017-05-30T22:52:59.998Z,49.40
2017-05-30T22:55:28.330Z,48.70
2017-05-30T22:57:56.399Z,48.60
2017-05-30T23:00:24.725Z,49.30
2017-05-30T23:02:53.171Z,49.20
2017-05-30T23:05:21.506Z,49.90
2017-05-30T23:07:49.802Z,50.00
2017-05-30T23:10:18.102Z,49.90
2017-05-30T23:12:46.414Z,50.40
2017-05-30T23:15:14.710Z,50.80
2017-05-30T23:17:43.042Z,51.20
2017-05-30T23:20:11.335Z,51.60
2017-05-30T23:22:39.638Z,52.00
2017-05-30T23:25:07.962Z,52.70
2017-05-30T23:27:36.271Z,53.20
2017-05-30T23:30:04.607Z,53.20
2017-05-30T23:32:32.899Z,53.70
2017-05-30T23:35:01.181Z,53.80
2017-05-30T23:37:29.507Z,53.40
2017-05-30T23:39:57.802Z,53.30
2017-05-30T23:42:26.132Z,53.40
2017-05-30T23:44:54.431Z,53.10
2017-05-30T23:47:22.718Z,53.10
2017-05-30T23:49:51.042Z,53.40
2017-05-30T23:52:19.339Z,53.30
2017-05-30T23:54:47.649Z,53.40
2017-05-30T23:57:15.948Z,53.20
2017-05-30T23:59:44.242Z,53.90
